createdAt,value
2023-05-20T00:00:50.592Z,99.90
2023-05-20T00:03:37.940Z,99.90
2023-05-20T00:06:25.276Z,99.90
2023-05-20T00:09:12.450Z,99.90
2023-05-20T00:12:00.054Z,99.90
2023-05-20T00:14:47.250Z,99.90
2023-05-20T00:17:34.545Z,99.90
2023-05-20T00:20:23.095Z,99.90
2023-05-20T00:23:10.378Z,99.90
2023-05-20T00:26:00.862Z,99.90
2023-05-20T00:28:48.785Z,99.90
2023-05-20T00:31:36.158Z,99.90
2023-05-20T00:34:23.405Z,99.90
2023-05-20T00:37:16.668Z,99.90
2023-05-20T00:40:04.198Z,99.90
2023-05-20T00:42:53.569Z,99.90
2023-05-20T00:45:43.369Z,99.90
2023-05-20T00:48:51.269Z,99.90
2023-05-20T00:51:38.721Z,99.90
2023-05-20T00:54:26.208Z,99.90
2023-05-20T00:57:14.089Z,99.90
2023-05-20T01:00:01.571Z,99.90
2023-05-20T01:02:52.216Z,99.90
2023-05-20T01:05:42.246Z,99.90
2023-05-20T01:08:31.242Z,99.90
2023-05-20T01:11:28.269Z,99.90
2023-05-20T01:14:17.803Z,99.90
2023-05-20T01:17:10.889Z,99.90
2023-05-20T01:19:59.810Z,99.90
2023-05-20T01:22:52.805Z,99.90
2023-05-20T01:25:42.880Z,99.90
2023-05-20T01:28:30.327Z,99.90
2023-05-20T01:31:23.797Z,99.90
2023-05-20T01:34:11.719Z,99.90
2023-05-20T01:36:58.928Z,99.90
2023-05-20T01:39:47.603Z,99.90
2023-05-20T01:42:36.249Z,99.90
2023-05-20T01:45:25.371Z,99.90
2023-05-20T01:48:13.077Z,99.90
2023-05-20T01:51:00.489Z,99.90
2023-05-20T01:53:47.779Z,99.90
2023-05-20T01:56:34.919Z,99.90
2023-05-20T01:59:22.189Z,99.90
2023-05-20T02:02:11.195Z,99.90
2023-05-20T02:04:58.492Z,99.90
2023-05-20T02:07:45.884Z,99.90
2023-05-20T02:10:33.296Z,99.90
2023-05-20T02:13:20.568Z,99.90
2023-05-20T02:16:07.967Z,99.90
2023-05-20T02:18:55.135Z,99.90
2023-05-20T02:21:42.658Z,99.90
2023-05-20T02:24:29.752Z,99.90
2023-05-20T02:27:17.174Z,99.90
2023-05-20T02:30:04.784Z,99.90
2023-05-20T02:32:52.247Z,99.90
2023-05-20T02:35:40.005Z,99.90
2023-05-20T02:38:27.184Z,99.90
2023-05-20T02:41:14.663Z,99.90
2023-05-20T02:44:01.803Z,99.90
2023-05-20T02:46:48.976Z,99.90
2023-05-20T02:49:36.112Z,99.90
2023-05-20T02:52:23.353Z,99.90
2023-05-20T02:55:10.677Z,99.90
2023-05-20T02:57:57.833Z,99.90
2023-05-20T03:00:45.184Z,99.90
2023-05-20T03:03:32.361Z,99.90
2023-05-20T03:06:19.549Z,99.90
2023-05-20T03:09:06.708Z,99.90
2023-05-20T03:11:53.886Z,99.90
2023-05-20T03:14:41.061Z,99.90
2023-05-20T03:17:28.294Z,99.90
2023-05-20T03:20:16.745Z,99.90
2023-05-20T03:23:04.772Z,99.90
2023-05-20T03:25:52.184Z,99.90
2023-05-20T03:28:39.374Z,99.90
2023-05-20T03:31:26.565Z,99.90
2023-05-20T03:34:13.789Z,99.90
2023-05-20T03:37:01.351Z,99.90
2023-05-20T03:39:48.526Z,99.90
2023-05-20T03:42:36.026Z,99.90
2023-05-20T03:45:23.429Z,99.90
2023-05-20T03:48:10.873Z,99.90
2023-05-20T03:50:58.016Z,99.90
2023-05-20T03:53:45.178Z,99.90
2023-05-20T03:56:32.307Z,99.90
2023-05-20T03:59:19.944Z,99.90
2023-05-20T04:02:07.262Z,99.90
2023-05-20T04:04:57.799Z,99.90
2023-05-20T04:07:45.015Z,99.90
2023-05-20T04:10:33.488Z,99.90
2023-05-20T04:13:20.678Z,99.90
2023-05-20T04:16:08.049Z,99.90
2023-05-20T04:18:55.783Z,99.90
2023-05-20T04:21:44.170Z,99.90
2023-05-20T04:24:31.300Z,99.90
2023-05-20T04:27:18.525Z,99.90
2023-05-20T04:30:06.926Z,99.90
2023-05-20T04:32:54.677Z,99.90
2023-05-20T04:35:42.906Z,99.90
2023-05-20T04:38:30.494Z,99.90
2023-05-20T04:41:17.788Z,99.90
2023-05-20T04:44:06.420Z,99.90
2023-05-20T04:46:53.556Z,99.90
2023-05-20T04:49:41.084Z,99.90
2023-05-20T04:52:28.228Z,99.90
2023-05-20T04:55:16.145Z,99.90
2023-05-20T04:58:04.035Z,99.90
2023-05-20T05:00:52.405Z,99.90
2023-05-20T05:03:39.576Z,99.90
2023-05-20T05:06:26.831Z,99.90
2023-05-20T05:09:13.942Z,99.90
2023-05-20T05:12:01.410Z,99.90
2023-05-20T05:14:48.654Z,99.90
2023-05-20T05:17:35.935Z,99.90
2023-05-20T05:20:23.192Z,99.90
2023-05-20T05:23:10.629Z,99.90
2023-05-20T05:25:57.923Z,99.90
2023-05-20T05:28:45.404Z,99.90
2023-05-20T05:31:32.578Z,99.90
2023-05-20T05:34:19.724Z,99.90
2023-05-20T05:37:06.866Z,99.90
2023-05-20T05:39:54.022Z,99.90
2023-05-20T05:42:41.245Z,99.90
2023-05-20T05:45:28.456Z,99.90
2023-05-20T05:48:15.777Z,99.90
2023-05-20T05:51:02.993Z,99.90
2023-05-20T05:53:50.209Z,99.90
2023-05-20T05:56:37.370Z,99.90
2023-05-20T05:59:24.591Z,99.90
2023-05-20T06:02:11.833Z,99.90
2023-05-20T06:04:58.987Z,99.90
2023-05-20T06:07:46.161Z,99.90
2023-05-20T06:10:33.320Z,99.90
2023-05-20T06:13:20.881Z,99.90
2023-05-20T06:16:08.167Z,99.90
2023-05-20T06:18:59.211Z,99.90
2023-05-20T06:21:47.976Z,99.90
2023-05-20T06:24:35.091Z,99.90
2023-05-20T06:27:22.359Z,99.90
2023-05-20T06:30:09.914Z,99.90
2023-05-20T06:32:57.223Z,99.90
2023-05-20T06:35:44.762Z,99.90
2023-05-20T06:38:32.002Z,99.90
2023-05-20T06:41:19.197Z,99.90
2023-05-20T06:44:07.400Z,99.90
2023-05-20T06:46:54.756Z,99.90
2023-05-20T06:49:45.047Z,99.90
2023-05-20T06:52:34.464Z,99.90
2023-05-20T06:55:21.699Z,99.90
2023-05-20T06:58:08.919Z,99.90
2023-05-20T07:00:56.054Z,99.90
2023-05-20T07:03:44.373Z,99.90
2023-05-20T07:06:31.697Z,99.90
2023-05-20T07:09:18.900Z,99.90
2023-05-20T07:12:06.519Z,99.90
2023-05-20T07:14:53.629Z,99.90
2023-05-20T07:17:41.079Z,99.90
2023-05-20T07:20:28.810Z,99.90
2023-05-20T07:23:15.990Z,99.90
2023-05-20T07:26:03.706Z,99.90
2023-05-20T07:28:51.669Z,99.90
2023-05-20T07:31:38.955Z,99.90
2023-05-20T07:34:26.176Z,99.90
2023-05-20T07:37:13.408Z,99.90
2023-05-20T07:40:03.030Z,99.90
2023-05-20T07:42:50.198Z,99.90
2023-05-20T07:45:37.837Z,99.90
2023-05-20T07:48:25.422Z,99.90
2023-05-20T07:51:12.616Z,99.90
2023-05-20T07:54:00.149Z,99.90
2023-05-20T07:56:47.422Z,99.90
2023-05-20T07:59:34.627Z,99.90
2023-05-20T08:02:22.056Z,99.90
2023-05-20T08:05:09.521Z,99.90
2023-05-20T08:07:56.851Z,99.90
2023-05-20T08:10:44.092Z,99.90
2023-05-20T08:13:32.995Z,99.90
2023-05-20T08:16:22.079Z,99.90
2023-05-20T08:19:09.430Z,99.90
2023-05-20T08:21:56.767Z,99.90
2023-05-20T08:24:43.976Z,99.90
2023-05-20T08:27:31.182Z,99.90
2023-05-20T08:30:18.520Z,99.90
2023-05-20T08:33:05.975Z,99.90
2023-05-20T08:35:53.432Z,99.90
2023-05-20T08:38:40.833Z,99.90
2023-05-20T08:41:28.015Z,99.90
2023-05-20T08:44:18.301Z,99.90
2023-05-20T08:47:06.272Z,99.90
2023-05-20T08:49:53.517Z,99.90
2023-05-20T08:52:45.425Z,99.90
2023-05-20T08:55:43.836Z,99.90
2023-05-20T08:58:32.820Z,99.90
2023-05-20T09:01:24.967Z,99.90
2023-05-20T09:04:12.687Z,99.90
2023-05-20T09:07:03.901Z,99.90
2023-05-20T09:09:51.166Z,99.90
2023-05-20T09:12:41.415Z,99.90
2023-05-20T09:15:30.358Z,99.90
2023-05-20T09:18:17.602Z,99.90
2023-05-20T09:21:07.167Z,99.90
2023-05-20T09:23:57.407Z,99.90
2023-05-20T09:26:45.196Z,99.90
2023-05-20T09:29:34.148Z,99.90
2023-05-20T09:32:24.327Z,99.90
2023-05-20T09:35:15.636Z,99.90
2023-05-20T09:38:04.884Z,99.90
2023-05-20T09:40:52.420Z,99.90
2023-05-20T09:43:50.742Z,99.90
2023-05-20T09:46:40.074Z,99.90
2023-05-20T09:49:31.340Z,99.90
2023-05-20T09:52:21.334Z,99.80
2023-05-20T09:55:13.154Z,99.30
2023-05-20T09:58:03.330Z,99.90
2023-05-20T10:00:51.201Z,99.90
2023-05-20T10:03:39.694Z,99.90
2023-05-20T10:07:06.642Z,99.90
2023-05-20T10:10:26.401Z,99.90
2023-05-20T10:13:50.424Z,99.90
2023-05-20T10:16:56.133Z,99.90
2023-05-20T10:19:43.510Z,99.90
2023-05-20T10:22:31.837Z,99.90
2023-05-20T10:25:28.508Z,99.90
2023-05-20T10:28:28.144Z,99.90
2023-05-20T10:31:37.860Z,99.90
2023-05-20T10:34:25.406Z,99.50
2023-05-20T10:37:23.671Z,99.40
2023-05-20T10:40:13.563Z,99.60
2023-05-20T10:43:13.779Z,98.00
2023-05-20T10:46:04.834Z,97.20
2023-05-20T10:48:52.690Z,97.20
2023-05-20T10:51:42.181Z,96.60
2023-05-20T10:54:29.995Z,96.40
2023-05-20T10:57:24.784Z,96.70
2023-05-20T11:00:16.894Z,94.80
2023-05-20T11:03:07.597Z,94.00
2023-05-20T11:05:57.946Z,93.20
2023-05-20T11:08:46.212Z,92.80
2023-05-20T11:11:33.684Z,94.00
2023-05-20T11:14:22.007Z,93.40
2023-05-20T11:17:09.684Z,92.70
2023-05-20T11:19:56.967Z,92.40
2023-05-20T11:22:45.279Z,91.60
2023-05-20T11:25:33.734Z,91.30
2023-05-20T11:28:24.329Z,91.70
2023-05-20T11:31:11.572Z,90.20
2023-05-20T11:34:02.514Z,87.50
2023-05-20T11:36:56.644Z,89.10
2023-05-20T11:39:44.481Z,90.00
2023-05-20T11:42:32.890Z,88.40
2023-05-20T11:45:20.094Z,86.00
2023-05-20T11:48:08.042Z,84.30
2023-05-20T11:50:56.504Z,84.30
2023-05-20T11:53:43.772Z,81.20
2023-05-20T11:56:31.858Z,80.80
2023-05-20T11:59:19.149Z,79.90
2023-05-20T12:02:07.016Z,83.00
2023-05-20T12:04:54.351Z,84.70
2023-05-20T12:07:41.768Z,85.40
2023-05-20T12:10:29.017Z,84.00
2023-05-20T12:13:16.280Z,81.50
2023-05-20T12:16:05.802Z,80.20
2023-05-20T12:18:53.222Z,80.00
2023-05-20T12:21:40.781Z,79.10
2023-05-20T12:24:27.988Z,77.30
2023-05-20T12:27:15.196Z,76.60
2023-05-20T12:30:02.730Z,77.50
2023-05-20T12:32:51.745Z,76.30
2023-05-20T12:35:40.164Z,75.10
2023-05-20T12:38:28.184Z,74.80
2023-05-20T12:41:15.526Z,75.00
2023-05-20T12:44:02.727Z,75.90
2023-05-20T12:46:50.055Z,78.10
2023-05-20T12:49:37.258Z,77.80
2023-05-20T12:52:24.734Z,75.60
2023-05-20T12:55:13.909Z,75.10
2023-05-20T12:58:01.094Z,74.00
2023-05-20T13:00:48.390Z,75.70
2023-05-20T13:03:35.755Z,75.70
2023-05-20T13:06:32.823Z,76.30
2023-05-20T13:09:20.232Z,77.40
2023-05-20T13:12:07.919Z,79.60
2023-05-20T13:14:55.068Z,81.80
2023-05-20T13:17:45.085Z,83.20
2023-05-20T13:20:32.386Z,83.90
2023-05-20T13:23:22.152Z,84.00
2023-05-20T13:26:10.057Z,83.80
2023-05-20T13:28:57.411Z,83.00
2023-05-20T13:31:44.599Z,81.40
2023-05-20T13:34:32.092Z,80.30
2023-05-20T13:37:19.351Z,80.80
2023-05-20T13:40:07.409Z,78.20
2023-05-20T13:42:54.786Z,77.50
2023-05-20T13:45:43.092Z,76.00
2023-05-20T13:48:30.541Z,75.70
2023-05-20T13:51:17.780Z,73.90
2023-05-20T13:54:06.567Z,73.60
2023-05-20T13:56:53.955Z,73.10
2023-05-20T13:59:41.266Z,71.60
2023-05-20T14:02:29.089Z,72.90
2023-05-20T14:05:17.015Z,73.10
2023-05-20T14:08:04.623Z,73.10
2023-05-20T14:10:55.964Z,72.60
2023-05-20T14:13:44.527Z,72.10
2023-05-20T14:16:32.506Z,70.90
2023-05-20T14:19:20.158Z,71.80
2023-05-20T14:22:07.510Z,71.50
2023-05-20T14:24:54.802Z,70.90
2023-05-20T14:27:42.134Z,71.50
2023-05-20T14:30:29.470Z,70.10
2023-05-20T14:33:16.645Z,69.80
2023-05-20T14:36:04.227Z,70.30
2023-05-20T14:38:51.486Z,69.10
2023-05-20T14:41:38.729Z,69.00
2023-05-20T14:44:26.007Z,69.30
2023-05-20T14:47:17.169Z,69.70
2023-05-20T14:50:04.722Z,69.10
2023-05-20T14:52:52.022Z,68.10
2023-05-20T14:55:39.794Z,68.20
2023-05-20T14:58:26.992Z,67.70
2023-05-20T15:01:14.233Z,67.30
2023-05-20T15:04:01.484Z,67.90
2023-05-20T15:06:48.801Z,66.60
2023-05-20T15:09:36.104Z,66.90
2023-05-20T15:12:23.331Z,67.30
2023-05-20T15:15:11.313Z,68.70
2023-05-20T15:17:58.581Z,68.20
2023-05-20T15:20:45.790Z,66.90
2023-05-20T15:23:32.956Z,66.30
2023-05-20T15:26:20.363Z,64.10
2023-05-20T15:29:07.555Z,65.20
2023-05-20T15:31:57.288Z,65.80
2023-05-20T15:34:44.495Z,66.50
2023-05-20T15:37:31.670Z,65.60
2023-05-20T15:40:20.302Z,66.10
2023-05-20T15:43:08.042Z,66.70
2023-05-20T15:45:57.744Z,66.50
2023-05-20T15:48:44.990Z,66.60
2023-05-20T15:51:32.203Z,66.00
2023-05-20T15:54:20.361Z,65.50
2023-05-20T15:57:07.671Z,67.00
2023-05-20T15:59:54.827Z,66.60
2023-05-20T16:02:42.909Z,67.10
2023-05-20T16:05:30.633Z,67.80
2023-05-20T16:08:17.996Z,67.40
2023-05-20T16:11:05.307Z,68.50
2023-05-20T16:13:52.562Z,68.20
2023-05-20T16:16:39.786Z,69.50
2023-05-20T16:19:30.460Z,70.10
2023-05-20T16:22:18.457Z,72.30
2023-05-20T16:25:06.061Z,74.20
2023-05-20T16:27:53.306Z,76.10
2023-05-20T16:30:40.774Z,76.50
2023-05-20T16:33:29.932Z,78.00
2023-05-20T16:36:19.725Z,78.20
2023-05-20T16:39:07.036Z,79.20
2023-05-20T16:41:54.397Z,80.70
2023-05-20T16:44:41.681Z,82.70
2023-05-20T16:47:28.970Z,84.20
2023-05-20T16:50:16.395Z,83.60
2023-05-20T16:53:05.175Z,84.30
2023-05-20T16:55:57.161Z,85.90
2023-05-20T16:58:44.433Z,86.40
2023-05-20T17:01:34.956Z,87.30
2023-05-20T17:04:22.587Z,88.60
2023-05-20T17:07:12.179Z,89.00
2023-05-20T17:09:59.826Z,89.60
2023-05-20T17:12:47.696Z,90.10
2023-05-20T17:15:37.152Z,90.80
2023-05-20T17:18:24.347Z,91.50
2023-05-20T17:21:13.946Z,91.60
2023-05-20T17:24:02.769Z,92.10
2023-05-20T17:26:50.170Z,92.50
2023-05-20T17:29:37.652Z,92.40
2023-05-20T17:32:24.796Z,92.60
2023-05-20T17:35:12.070Z,93.20
2023-05-20T17:37:59.370Z,93.50
2023-05-20T17:40:46.568Z,94.40
2023-05-20T17:43:33.771Z,94.50
2023-05-20T17:46:21.289Z,95.40
2023-05-20T17:49:08.779Z,95.60
2023-05-20T17:51:55.944Z,96.40
2023-05-20T17:54:43.132Z,96.70
2023-05-20T17:57:30.581Z,97.10
2023-05-20T18:00:21.582Z,97.60
2023-05-20T18:03:10.119Z,97.60
2023-05-20T18:05:58.068Z,98.10
2023-05-20T18:08:45.391Z,98.70
2023-05-20T18:11:33.463Z,99.10
2023-05-20T18:14:22.884Z,99.90
2023-05-20T18:17:10.127Z,99.90
2023-05-20T18:19:57.542Z,99.90
2023-05-20T18:22:47.920Z,99.90
2023-05-20T18:25:35.162Z,99.90
2023-05-20T18:28:22.550Z,99.90
2023-05-20T18:31:09.855Z,99.90
2023-05-20T18:33:57.095Z,99.90
2023-05-20T18:36:44.635Z,99.90
2023-05-20T18:39:31.797Z,99.90
2023-05-20T18:42:18.957Z,99.90
2023-05-20T18:45:06.915Z,99.90
2023-05-20T18:47:57.778Z,99.90
2023-05-20T18:50:45.176Z,99.90
2023-05-20T18:53:38.185Z,99.90
2023-05-20T18:56:26.819Z,99.90
2023-05-20T18:59:14.628Z,99.90
2023-05-20T19:02:02.318Z,99.90
2023-05-20T19:04:49.611Z,99.90
2023-05-20T19:07:37.551Z,99.90
2023-05-20T19:10:30.461Z,99.90
2023-05-20T19:13:17.735Z,99.90
2023-05-20T19:16:05.386Z,99.90
2023-05-20T19:18:55.416Z,99.90
2023-05-20T19:21:45.216Z,99.90
2023-05-20T19:24:35.376Z,99.90
2023-05-20T19:27:25.834Z,99.90
2023-05-20T19:30:14.215Z,99.90
2023-05-20T19:33:05.191Z,99.90
2023-05-20T19:35:52.444Z,99.90
2023-05-20T19:38:39.651Z,99.90
2023-05-20T19:41:27.419Z,99.90
2023-05-20T19:44:14.785Z,99.90
2023-05-20T19:47:02.193Z,99.90
2023-05-20T19:49:49.408Z,99.90
2023-05-20T19:52:36.762Z,99.90
2023-05-20T19:55:23.974Z,99.90
2023-05-20T19:58:11.099Z,99.90
2023-05-20T20:00:58.250Z,99.90
2023-05-20T20:03:46.164Z,99.90
2023-05-20T20:06:33.771Z,99.90
2023-05-20T20:09:21.235Z,99.90
2023-05-20T20:12:09.320Z,99.90
2023-05-20T20:14:57.027Z,99.90
2023-05-20T20:17:46.653Z,99.90
2023-05-20T20:20:40.014Z,99.90
2023-05-20T20:23:28.647Z,99.90
2023-05-20T20:26:15.886Z,99.90
2023-05-20T20:29:03.737Z,99.90
2023-05-20T20:31:51.617Z,99.90
2023-05-20T20:34:39.095Z,99.90
2023-05-20T20:37:27.419Z,99.90
2023-05-20T20:40:16.428Z,99.90
2023-05-20T20:43:04.884Z,99.90
2023-05-20T20:45:53.452Z,99.90
2023-05-20T20:48:45.915Z,99.90
2023-05-20T20:51:33.199Z,99.90
2023-05-20T20:54:20.718Z,99.90
2023-05-20T20:57:08.166Z,99.90
2023-05-20T20:59:57.865Z,99.90
2023-05-20T21:02:45.191Z,99.90
2023-05-20T21:05:32.662Z,99.90
2023-05-20T21:08:22.246Z,99.90
2023-05-20T21:11:09.450Z,99.90
2023-05-20T21:13:56.683Z,99.90
2023-05-20T21:16:43.823Z,99.90
2023-05-20T21:19:31.117Z,99.90
2023-05-20T21:22:18.275Z,99.90
2023-05-20T21:25:06.074Z,99.90
2023-05-20T21:27:53.444Z,99.90
2023-05-20T21:30:40.853Z,99.90
2023-05-20T21:33:28.321Z,99.90
2023-05-20T21:36:15.861Z,99.90
2023-05-20T21:39:03.424Z,99.90
2023-05-20T21:41:51.396Z,99.90
2023-05-20T21:44:38.657Z,99.90
2023-05-20T21:47:25.811Z,99.90
2023-05-20T21:50:13.308Z,99.90
2023-05-20T21:53:00.504Z,99.90
2023-05-20T21:55:47.743Z,99.90
2023-05-20T21:58:40.762Z,99.90
2023-05-20T22:01:28.100Z,99.90
2023-05-20T22:04:15.303Z,99.90
2023-05-20T22:07:02.949Z,99.90
2023-05-20T22:09:50.131Z,99.90
2023-05-20T22:12:40.535Z,99.90
2023-05-20T22:15:27.974Z,99.90
2023-05-20T22:18:15.211Z,99.90
2023-05-20T22:21:02.378Z,99.90
2023-05-20T22:23:49.571Z,99.90
2023-05-20T22:26:37.167Z,99.90
2023-05-20T22:29:24.331Z,99.90
2023-05-20T22:32:11.460Z,99.90
2023-05-20T22:34:58.976Z,99.90
2023-05-20T22:37:46.821Z,99.90
2023-05-20T22:40:34.739Z,99.90
2023-05-20T22:43:23.781Z,99.90
2023-05-20T22:46:11.010Z,99.90
2023-05-20T22:49:02.503Z,99.90
2023-05-20T22:51:50.330Z,99.90
2023-05-20T22:54:44.341Z,99.90
2023-05-20T22:57:50.559Z,99.90
2023-05-20T23:00:38.890Z,99.90
2023-05-20T23:03:31.952Z,99.90
2023-05-20T23:06:29.415Z,99.90
2023-05-20T23:09:19.029Z,99.90
2023-05-20T23:12:07.309Z,99.90
2023-05-20T23:19:20.764Z,99.90
2023-05-20T23:22:28.336Z,99.90
2023-05-20T23:25:15.733Z,99.90
2023-05-20T23:28:04.488Z,99.90
2023-05-20T23:30:59.298Z,99.90
2023-05-20T23:36:24.203Z,99.90
2023-05-20T23:39:20.816Z,99.90
2023-05-20T23:42:08.004Z,99.90
2023-05-20T23:44:55.230Z,99.90
2023-05-20T23:47:49.801Z,99.90
2023-05-20T23:50:37.360Z,99.90
2023-05-20T23:53:25.634Z,99.90
2023-05-20T23:56:18.955Z,99.90
2023-05-20T23:59:17.714Z,99.90
